createdAt,value
2018-02-09T00:02:08.470Z,77.36
2018-02-09T00:04:35.006Z,77.23
2018-02-09T00:07:01.632Z,77.41
2018-02-09T00:09:28.164Z,77.51
2018-02-09T00:11:54.694Z,77.45
2018-02-09T00:14:21.952Z,77.66
2018-02-09T00:16:48.491Z,78.01
2018-02-09T00:19:14.987Z,78.21
2018-02-09T00:21:41.612Z,78.05
2018-02-09T00:24:08.140Z,77.82
2018-02-09T00:26:34.635Z,77.96
2018-02-09T00:29:01.191Z,77.99
2018-02-09T00:31:27.690Z,78.06
2018-02-09T00:33:54.272Z,78.16
2018-02-09T00:36:20.816Z,78.10
2018-02-09T00:38:47.363Z,77.99
2018-02-09T00:41:13.944Z,78.01
2018-02-09T00:43:40.481Z,77.70
2018-02-09T00:46:06.990Z,77.65
2018-02-09T00:48:33.524Z,77.58
2018-02-09T00:51:00.796Z,77.46
2018-02-09T00:53:28.076Z,77.44
2018-02-09T00:55:55.400Z,77.54
2018-02-09T00:58:22.656Z,77.83
2018-02-09T01:00:49.916Z,77.87
2018-02-09T01:03:17.293Z,77.63
2018-02-09T01:05:45.340Z,77.16
2018-02-09T01:08:11.832Z,76.45
2018-02-09T01:10:38.375Z,76.37
2018-02-09T01:13:04.927Z,76.24
2018-02-09T01:15:32.179Z,76.40
2018-02-09T01:18:00.368Z,76.94
2018-02-09T01:20:27.652Z,76.72
2018-02-09T01:22:54.313Z,77.53
2018-02-09T01:25:20.825Z,77.49
2018-02-09T01:27:47.355Z,77.63
2018-02-09T01:30:13.883Z,78.10
2018-02-09T01:32:40.421Z,78.14
2018-02-09T01:35:06.957Z,78.63
2018-02-09T01:37:33.475Z,79.14
2018-02-09T01:40:00.082Z,78.87
2018-02-09T01:42:27.332Z,79.12
2018-02-09T01:44:53.856Z,77.77
2018-02-09T01:47:20.427Z,78.17
2018-02-09T01:50:05.380Z,78.33
2018-02-09T01:52:31.905Z,77.77
2018-02-09T01:54:59.185Z,78.45
2018-02-09T01:57:25.772Z,78.16
2018-02-09T01:59:52.301Z,78.38
2018-02-09T02:02:18.863Z,78.49
2018-02-09T02:04:46.132Z,78.39
2018-02-09T02:07:13.556Z,78.68
2018-02-09T02:09:40.070Z,78.77
2018-02-09T02:12:07.362Z,78.61
2018-02-09T02:14:33.911Z,78.51
2018-02-09T02:17:01.167Z,78.83
2018-02-09T02:19:27.723Z,78.78
2018-02-09T02:21:54.411Z,78.59
2018-02-09T02:24:20.930Z,78.22
2018-02-09T02:26:48.188Z,78.27
2018-02-09T02:29:14.701Z,78.21
2018-02-09T02:31:41.240Z,77.96
2018-02-09T02:34:07.778Z,76.61
2018-02-09T02:36:34.340Z,77.73
2018-02-09T02:39:00.842Z,77.94
2018-02-09T02:41:27.430Z,76.81
2018-02-09T02:43:54.754Z,76.51
2018-02-09T02:46:21.329Z,77.62
2018-02-09T02:48:48.623Z,75.80
2018-02-09T02:51:16.171Z,75.87
2018-02-09T02:53:42.741Z,77.05
2018-02-09T02:56:09.317Z,77.31
2018-02-09T02:58:36.633Z,77.46
2018-02-09T03:01:03.967Z,78.54
2018-02-09T03:03:30.566Z,78.97
2018-02-09T03:05:57.128Z,79.14
2018-02-09T03:08:23.809Z,78.65
2018-02-09T03:10:51.147Z,77.56
2018-02-09T03:13:17.830Z,76.33
2018-02-09T03:15:44.457Z,76.58
2018-02-09T03:18:11.055Z,76.15
2018-02-09T03:20:37.626Z,75.64
2018-02-09T03:23:04.955Z,76.50
2018-02-09T03:25:31.533Z,75.64
2018-02-09T03:27:58.119Z,76.72
2018-02-09T03:30:24.690Z,76.31
2018-02-09T03:32:51.277Z,76.48
2018-02-09T03:35:17.834Z,76.14
2018-02-09T03:37:45.168Z,76.96
2018-02-09T03:40:11.748Z,76.68
2018-02-09T03:42:39.189Z,75.78
2018-02-09T03:45:05.741Z,76.70
2018-02-09T03:47:33.058Z,76.78
2018-02-09T03:49:59.645Z,76.37
2018-02-09T03:52:26.979Z,75.13
2018-02-09T03:54:53.525Z,75.91
2018-02-09T03:57:20.102Z,75.82
2018-02-09T03:59:47.682Z,75.78
2018-02-09T04:02:14.240Z,77.01
2018-02-09T04:04:41.565Z,76.48
2018-02-09T04:07:08.137Z,75.72
2018-02-09T04:09:35.457Z,75.50
2018-02-09T04:12:02.029Z,75.63
2018-02-09T04:14:29.362Z,75.00
2018-02-09T04:16:55.937Z,75.87
2018-02-09T04:19:22.489Z,76.01
2018-02-09T04:21:49.170Z,75.68
2018-02-09T04:24:16.517Z,75.41
2018-02-09T04:26:43.090Z,75.72
2018-02-09T04:29:10.430Z,76.34
2018-02-09T04:31:37.010Z,76.63
2018-02-09T04:34:03.591Z,75.98
2018-02-09T04:36:30.159Z,76.02
2018-02-09T04:38:56.729Z,75.38
2018-02-09T04:41:23.343Z,74.19
2018-02-09T04:43:49.926Z,74.32
2018-02-09T04:46:16.525Z,74.71
2018-02-09T04:48:43.087Z,75.71
2018-02-09T04:51:09.659Z,75.89
2018-02-09T04:53:36.221Z,75.52
2018-02-09T04:56:02.795Z,76.28
2018-02-09T04:58:29.366Z,76.60
2018-02-09T05:00:55.931Z,76.31
2018-02-09T05:03:22.497Z,76.16
2018-02-09T05:05:49.102Z,74.87
2018-02-09T05:08:15.663Z,73.89
2018-02-09T05:10:42.221Z,74.76
2018-02-09T05:13:08.996Z,75.82
2018-02-09T05:15:35.568Z,76.30
2018-02-09T05:18:02.826Z,76.64
2018-02-09T05:20:29.387Z,76.76
2018-02-09T05:22:56.034Z,76.20
2018-02-09T05:25:22.670Z,76.31
2018-02-09T05:27:49.527Z,75.32
2018-02-09T05:30:16.866Z,76.01
2018-02-09T05:32:44.218Z,75.53
2018-02-09T05:35:10.786Z,76.04
2018-02-09T05:37:38.377Z,75.83
2018-02-09T05:40:04.951Z,75.78
2018-02-09T05:42:31.509Z,75.96
2018-02-09T05:44:58.850Z,76.00
2018-02-09T05:47:25.390Z,74.66
2018-02-09T05:49:52.714Z,75.11
2018-02-09T05:52:19.307Z,75.29
2018-02-09T05:54:45.877Z,75.58
2018-02-09T05:57:12.438Z,75.91
2018-02-09T05:59:39.012Z,76.56
2018-02-09T06:02:05.626Z,76.16
2018-02-09T06:04:32.967Z,74.90
2018-02-09T06:07:00.497Z,75.38
2018-02-09T06:09:27.290Z,76.07
2018-02-09T06:11:54.614Z,75.86
2018-02-09T06:14:21.193Z,76.39
2018-02-09T06:16:48.485Z,76.29
2018-02-09T06:19:15.062Z,75.17
2018-02-09T06:21:41.612Z,74.82
2018-02-09T06:24:08.936Z,75.37
2018-02-09T06:26:36.266Z,75.27
2018-02-09T06:29:02.871Z,75.67
2018-02-09T06:31:29.475Z,75.04
2018-02-09T06:33:56.796Z,75.01
2018-02-09T06:36:23.386Z,75.41
2018-02-09T06:38:50.730Z,75.99
2018-02-09T06:41:18.034Z,75.87
2018-02-09T06:43:44.624Z,75.55
2018-02-09T06:46:11.954Z,75.55
2018-02-09T06:48:39.262Z,75.74
2018-02-09T06:51:05.840Z,75.64
2018-02-09T06:53:33.212Z,76.03
2018-02-09T06:56:00.541Z,76.10
2018-02-09T06:58:27.105Z,76.44
2018-02-09T07:00:53.737Z,76.44
2018-02-09T07:03:21.085Z,76.56
2018-02-09T07:05:47.724Z,76.54
2018-02-09T07:08:14.328Z,75.74
2018-02-09T07:10:40.956Z,75.96
2018-02-09T07:13:07.570Z,75.36
2018-02-09T07:15:34.314Z,75.53
2018-02-09T07:18:00.894Z,74.80
2018-02-09T07:20:27.451Z,75.33
2018-02-09T07:22:54.120Z,74.63
2018-02-09T07:25:20.710Z,74.99
2018-02-09T07:27:47.287Z,75.87
2018-02-09T07:30:13.870Z,76.06
2018-02-09T07:32:40.534Z,75.66
2018-02-09T07:35:07.117Z,74.39
2018-02-09T07:37:33.747Z,74.80
2018-02-09T07:40:00.364Z,75.57
2018-02-09T07:42:26.987Z,75.14
2018-02-09T07:44:54.341Z,74.79
2018-02-09T07:47:21.664Z,75.22
2018-02-09T07:49:48.311Z,74.91
2018-02-09T07:52:14.894Z,74.11
2018-02-09T07:54:41.515Z,75.36
2018-02-09T07:57:08.826Z,75.27
2018-02-09T07:59:35.459Z,74.87
2018-02-09T08:02:02.148Z,73.87
2018-02-09T08:04:28.764Z,73.80
2018-02-09T08:06:55.357Z,73.97
2018-02-09T08:09:21.949Z,74.48
2018-02-09T08:11:49.317Z,73.65
2018-02-09T08:14:15.919Z,73.53
2018-02-09T08:16:42.522Z,73.61
2018-02-09T08:19:09.110Z,73.19
2018-02-09T08:21:35.725Z,72.64
2018-02-09T08:24:02.328Z,72.62
2018-02-09T08:26:29.289Z,72.06
2018-02-09T08:28:55.882Z,72.19
2018-02-09T08:31:22.495Z,71.90
2018-02-09T08:33:49.067Z,71.33
2018-02-09T08:36:15.677Z,70.47
2018-02-09T08:38:43.014Z,69.72
2018-02-09T08:41:09.596Z,69.52
2018-02-09T08:43:36.198Z,68.70
2018-02-09T08:46:03.862Z,67.96
2018-02-09T08:48:31.202Z,68.82
2018-02-09T08:50:57.782Z,68.36
2018-02-09T08:53:24.394Z,67.18
2018-02-09T08:55:51.995Z,66.68
2018-02-09T08:58:18.591Z,65.60
2018-02-09T09:00:45.945Z,66.09
2018-02-09T09:03:13.245Z,65.94
2018-02-09T09:05:39.830Z,64.52
2018-02-09T09:08:06.437Z,65.08
2018-02-09T09:10:33.079Z,65.10
2018-02-09T09:12:59.670Z,64.73
2018-02-09T09:15:26.272Z,64.29
2018-02-09T09:17:53.642Z,63.37
2018-02-09T09:20:20.966Z,63.38
2018-02-09T09:22:47.629Z,63.00
2018-02-09T09:25:14.990Z,61.90
2018-02-09T09:27:42.322Z,62.70
2018-02-09T09:30:08.971Z,62.53
2018-02-09T09:32:36.305Z,63.32
2018-02-09T09:35:03.902Z,61.75
2018-02-09T09:37:30.675Z,61.12
2018-02-09T09:39:57.299Z,61.20
2018-02-09T09:42:23.888Z,57.92
2018-02-09T09:44:50.513Z,54.20
2018-02-09T09:47:17.114Z,50.80
2018-02-09T09:49:43.723Z,50.14
2018-02-09T09:52:10.370Z,52.26
2018-02-09T09:54:36.996Z,53.30
2018-02-09T09:57:03.619Z,55.07
2018-02-09T09:59:30.262Z,56.53
2018-02-09T10:01:56.867Z,57.65
2018-02-09T10:04:23.468Z,58.58
2018-02-09T10:06:50.074Z,58.65
2018-02-09T10:09:17.426Z,60.06
2018-02-09T10:11:44.767Z,60.92
2018-02-09T10:14:11.358Z,61.97
2018-02-09T10:16:37.962Z,62.38
2018-02-09T10:19:05.318Z,61.79
2018-02-09T10:21:32.637Z,60.20
2018-02-09T10:23:59.251Z,59.44
2018-02-09T10:26:25.905Z,60.13
2018-02-09T10:28:53.274Z,60.23
2018-02-09T10:31:19.908Z,61.33
2018-02-09T10:33:46.470Z,61.74
2018-02-09T10:36:13.906Z,62.61
2018-02-09T10:38:40.503Z,62.97
2018-02-09T10:41:07.093Z,62.38
2018-02-09T10:43:33.770Z,62.19
2018-02-09T10:46:00.322Z,62.24
2018-02-09T10:48:26.955Z,62.12
2018-02-09T10:50:53.598Z,62.57
2018-02-09T10:53:20.268Z,62.07
2018-02-09T10:55:46.858Z,62.40
2018-02-09T10:58:13.486Z,61.71
2018-02-09T11:00:46.106Z,62.59
2018-02-09T11:03:12.770Z,63.47
2018-02-09T11:05:39.348Z,63.77
2018-02-09T11:08:06.030Z,63.55
2018-02-09T11:10:33.430Z,63.67
2018-02-09T11:13:00.401Z,64.44
2018-02-09T11:15:26.970Z,63.86
2018-02-09T11:17:53.525Z,64.39
2018-02-09T11:20:20.868Z,64.44
2018-02-09T11:22:48.195Z,64.01
2018-02-09T11:25:15.702Z,64.26
2018-02-09T11:27:42.317Z,64.64
2018-02-09T11:30:08.955Z,64.08
2018-02-09T11:32:36.318Z,63.94
2018-02-09T11:35:03.704Z,63.71
2018-02-09T11:37:30.301Z,63.47
2018-02-09T11:39:57.646Z,63.32
2018-02-09T11:42:24.351Z,63.28
2018-02-09T11:44:51.233Z,63.93
2018-02-09T11:47:18.647Z,63.27
2018-02-09T11:49:45.237Z,64.16
2018-02-09T11:52:12.562Z,63.69
2018-02-09T11:54:39.187Z,63.66
2018-02-09T11:57:05.785Z,63.93
2018-02-09T11:59:32.439Z,63.76
2018-02-09T12:01:59.057Z,63.20
2018-02-09T12:04:25.671Z,64.17
2018-02-09T12:06:53.013Z,63.51
2018-02-09T12:09:19.578Z,63.70
2018-02-09T12:11:46.346Z,63.47
2018-02-09T12:14:12.922Z,63.62
2018-02-09T12:16:39.528Z,63.31
2018-02-09T12:19:06.143Z,63.58
2018-02-09T12:21:32.762Z,63.62
2018-02-09T12:24:00.111Z,64.02
2018-02-09T12:26:26.741Z,64.55
2018-02-09T12:28:53.298Z,63.10
2018-02-09T12:31:19.878Z,64.28
2018-02-09T12:33:47.299Z,63.80
2018-02-09T12:36:13.914Z,63.65
2018-02-09T12:38:41.250Z,63.80
2018-02-09T12:41:07.858Z,64.09
2018-02-09T12:43:34.470Z,64.40
2018-02-09T12:46:01.079Z,63.98
2018-02-09T12:48:27.682Z,64.29
2018-02-09T12:50:55.057Z,63.81
2018-02-09T12:53:21.635Z,63.57
2018-02-09T12:55:48.246Z,64.01
2018-02-09T12:58:15.564Z,63.41
2018-02-09T13:00:42.177Z,64.10
2018-02-09T13:03:08.756Z,63.94
2018-02-09T13:05:35.419Z,64.45
2018-02-09T13:08:02.757Z,65.19
2018-02-09T13:10:29.365Z,64.97
2018-02-09T13:13:06.164Z,64.14
2018-02-09T13:15:33.337Z,63.92
2018-02-09T13:17:59.983Z,64.09
2018-02-09T13:20:26.641Z,64.24
2018-02-09T13:23:11.617Z,63.91
2018-02-09T13:25:38.938Z,63.31
2018-02-09T13:28:05.526Z,64.29
2018-02-09T13:30:32.346Z,64.21
2018-02-09T13:33:17.413Z,63.84
2018-02-09T13:35:44.719Z,64.60
2018-02-09T13:38:12.083Z,64.23
2018-02-09T13:40:38.706Z,64.49
2018-02-09T13:43:05.319Z,64.53
2018-02-09T13:45:31.978Z,65.31
2018-02-09T13:47:58.886Z,65.25
2018-02-09T13:50:25.472Z,65.66
2018-02-09T13:52:52.769Z,65.24
2018-02-09T13:55:19.395Z,65.48
2018-02-09T13:57:45.973Z,65.08
2018-02-09T14:00:12.596Z,65.16
2018-02-09T14:02:39.182Z,64.12
2018-02-09T14:05:05.791Z,64.52
2018-02-09T14:07:32.415Z,65.71
2018-02-09T14:09:59.026Z,66.29
2018-02-09T14:12:27.030Z,65.91
2018-02-09T14:14:53.621Z,65.81
2018-02-09T14:17:20.201Z,66.00
2018-02-09T14:19:46.788Z,66.13
2018-02-09T14:22:13.405Z,65.63
2018-02-09T14:24:40.034Z,65.53
2018-02-09T14:27:07.415Z,66.03
2018-02-09T14:29:33.990Z,65.74
2018-02-09T14:32:00.550Z,66.02
2018-02-09T14:34:27.155Z,66.50
2018-02-09T14:36:53.810Z,65.28
2018-02-09T14:39:20.405Z,66.42
2018-02-09T14:41:46.998Z,66.09
2018-02-09T14:44:13.629Z,67.05
2018-02-09T14:46:40.248Z,67.65
2018-02-09T14:49:06.897Z,67.82
2018-02-09T14:51:33.561Z,67.70
2018-02-09T14:54:00.922Z,68.24
2018-02-09T14:56:27.565Z,68.43
2018-02-09T14:58:54.966Z,68.93
2018-02-09T15:01:21.586Z,69.10
2018-02-09T15:03:48.189Z,69.02
2018-02-09T15:06:15.545Z,68.95
2018-02-09T15:08:42.146Z,68.38
2018-02-09T15:11:08.757Z,67.35
2018-02-09T15:13:35.346Z,69.12
2018-02-09T15:16:01.933Z,69.78
2018-02-09T15:18:28.550Z,70.05
2018-02-09T15:20:55.717Z,70.00
2018-02-09T15:23:22.286Z,70.51
2018-02-09T15:25:48.858Z,70.74
2018-02-09T15:28:15.523Z,70.68
2018-02-09T15:30:42.114Z,70.77
2018-02-09T15:33:09.510Z,70.96
2018-02-09T15:35:36.166Z,70.41
2018-02-09T15:38:02.828Z,70.58
2018-02-09T15:40:29.424Z,70.67
2018-02-09T15:42:56.011Z,70.25
2018-02-09T15:45:22.583Z,70.96
2018-02-09T15:47:49.202Z,70.97
2018-02-09T15:50:15.798Z,70.44
2018-02-09T15:52:42.387Z,70.75
2018-02-09T15:55:09.030Z,70.67
2018-02-09T15:57:35.629Z,71.02
2018-02-09T16:00:02.365Z,71.24
2018-02-09T16:02:28.971Z,71.30
2018-02-09T16:04:55.571Z,71.05
2018-02-09T16:07:22.178Z,71.42
2018-02-09T16:09:48.779Z,71.55
2018-02-09T16:12:15.383Z,71.36
2018-02-09T16:14:41.999Z,71.05
2018-02-09T16:17:09.384Z,71.15
2018-02-09T16:19:35.991Z,70.99
2018-02-09T16:22:02.666Z,70.67
2018-02-09T16:24:29.239Z,70.86
2018-02-09T16:26:55.876Z,70.84
2018-02-09T16:29:22.478Z,70.79
2018-02-09T16:31:49.066Z,71.03
2018-02-09T16:34:15.671Z,71.18
2018-02-09T16:36:42.249Z,71.09
2018-02-09T16:39:09.589Z,71.30
2018-02-09T16:41:36.202Z,71.34
2018-02-09T16:44:02.877Z,71.27
2018-02-09T16:46:29.492Z,71.50
2018-02-09T16:48:56.883Z,71.58
2018-02-09T16:51:24.243Z,70.61
2018-02-09T16:53:50.867Z,70.44
2018-02-09T16:56:18.229Z,71.20
2018-02-09T16:58:45.574Z,71.79
2018-02-09T17:01:12.945Z,71.50
2018-02-09T17:03:39.615Z,71.63
2018-02-09T17:06:06.199Z,71.68
2018-02-09T17:08:32.847Z,71.44
2018-02-09T17:11:00.186Z,72.17
2018-02-09T17:13:26.762Z,72.63
2018-02-09T17:15:53.403Z,72.94
2018-02-09T17:18:19.999Z,72.51
2018-02-09T17:20:46.579Z,71.93
2018-02-09T17:23:13.210Z,72.67
2018-02-09T17:25:39.783Z,72.92
2018-02-09T17:28:06.444Z,73.26
2018-02-09T17:30:33.788Z,73.36
2018-02-09T17:33:00.416Z,73.15
2018-02-09T17:35:27.027Z,72.86
2018-02-09T17:37:53.622Z,73.00
2018-02-09T17:40:20.241Z,72.82
2018-02-09T17:42:46.845Z,72.94
2018-02-09T17:45:13.483Z,72.93
2018-02-09T17:47:40.093Z,72.82
2018-02-09T17:50:06.701Z,72.95
2018-02-09T17:52:34.091Z,73.14
2018-02-09T17:55:00.731Z,73.13
2018-02-09T17:57:27.382Z,73.27
2018-02-09T17:59:53.984Z,73.29
2018-02-09T18:02:20.562Z,73.31
2018-02-09T18:04:47.137Z,73.33
2018-02-09T18:07:13.747Z,73.43
2018-02-09T18:09:40.370Z,73.42
2018-02-09T18:12:06.981Z,73.30
2018-02-09T18:14:33.617Z,73.31
2018-02-09T18:17:00.353Z,72.44
2018-02-09T18:19:27.031Z,72.99
2018-02-09T18:21:54.364Z,73.45
2018-02-09T18:24:20.942Z,73.65
2018-02-09T18:26:48.369Z,73.26
2018-02-09T18:29:15.088Z,73.38
2018-02-09T18:31:41.714Z,73.39
2018-02-09T18:34:08.376Z,72.78
2018-02-09T18:36:34.962Z,73.10
2018-02-09T18:39:01.638Z,72.29
2018-02-09T18:41:28.305Z,71.93
2018-02-09T18:43:55.241Z,72.39
2018-02-09T18:46:21.832Z,72.54
2018-02-09T18:48:48.428Z,73.29
2018-02-09T18:51:15.100Z,72.07
2018-02-09T18:53:42.478Z,71.72
2018-02-09T18:56:09.072Z,71.57
2018-02-09T18:58:35.693Z,72.01
2018-02-09T19:01:02.309Z,72.02
2018-02-09T19:03:28.963Z,72.12
2018-02-09T19:05:55.545Z,72.46
2018-02-09T19:08:23.123Z,73.07
2018-02-09T19:10:50.341Z,72.64
2018-02-09T19:13:16.942Z,73.33
2018-02-09T19:15:43.577Z,73.31
2018-02-09T19:18:10.136Z,73.47
2018-02-09T19:20:36.734Z,73.78
2018-02-09T19:23:03.290Z,73.73
2018-02-09T19:25:29.900Z,73.98
2018-02-09T19:27:56.593Z,74.32
2018-02-09T19:30:23.980Z,74.58
2018-02-09T19:32:50.604Z,73.80
2018-02-09T19:35:17.948Z,74.31
2018-02-09T19:37:44.549Z,74.27
2018-02-09T19:40:11.128Z,74.35
2018-02-09T19:42:37.763Z,74.35
2018-02-09T19:45:04.448Z,74.43
2018-02-09T19:47:31.038Z,74.43
2018-02-09T19:49:58.386Z,74.30
2018-02-09T19:52:25.011Z,74.14
2018-02-09T19:54:52.398Z,74.12
2018-02-09T19:57:20.016Z,73.31
2018-02-09T19:59:46.627Z,73.46
2018-02-09T20:02:13.222Z,74.10
2018-02-09T20:04:39.840Z,73.24
2018-02-09T20:07:07.202Z,73.58
2018-02-09T20:09:33.792Z,73.40
2018-02-09T20:12:00.453Z,72.82
2018-02-09T20:14:27.139Z,74.05
2018-02-09T20:16:53.789Z,74.13
2018-02-09T20:19:20.480Z,74.24
2018-02-09T20:21:47.509Z,74.94
2018-02-09T20:24:14.096Z,74.13
2018-02-09T20:26:41.490Z,74.27
2018-02-09T20:29:08.068Z,74.60
2018-02-09T20:31:35.486Z,75.04
2018-02-09T20:34:02.104Z,74.76
2018-02-09T20:36:28.736Z,74.85
2018-02-09T20:38:55.548Z,74.82
2018-02-09T20:41:22.138Z,75.08
2018-02-09T20:43:48.714Z,74.82
2018-02-09T20:46:16.048Z,74.37
2018-02-09T20:48:43.446Z,74.54
2018-02-09T20:51:10.803Z,74.81
2018-02-09T20:53:37.507Z,74.58
2018-02-09T20:56:04.134Z,74.51
2018-02-09T20:58:30.854Z,74.29
2018-02-09T21:00:57.465Z,74.48
2018-02-09T21:03:24.029Z,73.90
2018-02-09T21:05:50.723Z,73.84
2018-02-09T21:08:17.305Z,73.86
2018-02-09T21:10:43.951Z,73.91
2018-02-09T21:13:10.527Z,74.13
2018-02-09T21:15:37.121Z,74.17
2018-02-09T21:18:03.714Z,74.37
2018-02-09T21:20:30.348Z,74.23
2018-02-09T21:22:57.661Z,74.25
2018-02-09T21:25:24.277Z,73.96
2018-02-09T21:27:50.869Z,74.19
2018-02-09T21:30:18.491Z,74.11
2018-02-09T21:32:45.102Z,74.11
2018-02-09T21:35:11.675Z,73.99
2018-02-09T21:37:38.285Z,74.04
2018-02-09T21:40:04.871Z,73.99
2018-02-09T21:42:32.248Z,73.90
2018-02-09T21:44:58.812Z,73.98
2018-02-09T21:47:25.417Z,73.91
2018-02-09T21:49:52.032Z,73.92
2018-02-09T21:52:19.409Z,74.06
2018-02-09T21:54:45.994Z,73.98
2018-02-09T21:57:12.545Z,73.96
2018-02-09T21:59:39.138Z,74.01
2018-02-09T22:02:05.746Z,73.92
2018-02-09T22:04:32.374Z,73.76
2018-02-09T22:06:59.704Z,73.67
2018-02-09T22:09:26.327Z,73.55
2018-02-09T22:11:53.662Z,73.77
2018-02-09T22:14:20.330Z,73.76
2018-02-09T22:16:46.918Z,73.65
2018-02-09T22:19:13.523Z,73.74
2018-02-09T22:21:40.839Z,73.65
2018-02-09T22:24:07.477Z,74.01
2018-02-09T22:26:34.074Z,73.80
2018-02-09T22:29:00.718Z,73.57
2018-02-09T22:31:27.326Z,73.99
2018-02-09T22:33:53.974Z,73.78
2018-02-09T22:36:21.314Z,73.73
2018-02-09T22:38:48.662Z,73.62
2018-02-09T22:41:15.242Z,73.48
2018-02-09T22:43:41.876Z,73.45
2018-02-09T22:46:08.479Z,73.49
2018-02-09T22:48:35.811Z,73.41
2018-02-09T22:51:02.439Z,73.75
2018-02-09T22:53:29.056Z,73.87
2018-02-09T22:55:55.642Z,73.69
2018-02-09T22:58:22.279Z,73.11
2018-02-09T23:00:49.609Z,73.39
2018-02-09T23:03:16.198Z,73.43
2018-02-09T23:05:43.509Z,73.46
2018-02-09T23:08:10.077Z,73.58
2018-02-09T23:10:36.754Z,73.90
2018-02-09T23:13:03.329Z,73.81
2018-02-09T23:15:30.967Z,73.78
2018-02-09T23:17:57.525Z,73.44
2018-02-09T23:20:24.106Z,73.61
2018-02-09T23:22:50.670Z,73.77
2018-02-09T23:25:17.265Z,73.94
2018-02-09T23:27:43.902Z,73.76
2018-02-09T23:30:10.617Z,73.56
2018-02-09T23:32:37.211Z,73.57
2018-02-09T23:35:03.814Z,73.52
2018-02-09T23:37:31.126Z,73.54
2018-02-09T23:39:57.714Z,73.38
2018-02-09T23:42:24.350Z,73.24
2018-02-09T23:44:50.936Z,72.99
2018-02-09T23:47:17.509Z,73.41
2018-02-09T23:49:44.113Z,73.36
2018-02-09T23:52:10.784Z,73.45
2018-02-09T23:54:38.113Z,73.52
2018-02-09T23:57:04.678Z,73.81
2018-02-09T23:59:32.161Z,73.69
